createdAt,value
2022-09-25T00:00:14.077Z,84.33
2022-09-25T00:02:42.519Z,84.45
2022-09-25T00:05:11.277Z,84.49
2022-09-25T00:07:41.058Z,84.87
2022-09-25T00:10:10.436Z,84.92
2022-09-25T00:12:39.491Z,84.83
2022-09-25T00:15:10.909Z,85.22
2022-09-25T00:17:39.095Z,85.41
2022-09-25T00:20:07.507Z,85.44
2022-09-25T00:22:36.222Z,85.86
2022-09-25T00:25:06.794Z,85.66
2022-09-25T00:27:35.137Z,85.33
2022-09-25T00:30:03.700Z,85.65
2022-09-25T00:32:32.397Z,86.00
2022-09-25T00:35:00.706Z,86.32
2022-09-25T00:37:29.621Z,86.24
2022-09-25T00:39:58.413Z,86.34
2022-09-25T00:42:28.397Z,86.22
2022-09-25T00:45:00.911Z,86.30
2022-09-25T00:47:53.982Z,86.43
2022-09-25T00:50:31.926Z,86.40
2022-09-25T00:53:06.186Z,86.32
2022-09-25T00:55:36.514Z,86.71
2022-09-25T00:58:07.315Z,86.82
2022-09-25T01:00:36.138Z,86.86
2022-09-25T01:03:05.827Z,86.87
2022-09-25T01:05:37.338Z,86.67
2022-09-25T01:08:10.154Z,86.83
2022-09-25T01:10:38.734Z,86.82
2022-09-25T01:13:09.047Z,87.05
2022-09-25T01:15:43.453Z,87.02
2022-09-25T01:18:23.557Z,87.07
2022-09-25T01:21:09.077Z,87.19
2022-09-25T01:24:42.885Z,87.24
2022-09-25T01:27:51.049Z,87.17
2022-09-25T01:30:21.751Z,87.37
2022-09-25T01:33:04.563Z,87.47
2022-09-25T01:35:46.641Z,87.36
2022-09-25T01:38:23.208Z,87.42
2022-09-25T01:41:00.939Z,87.34
2022-09-25T01:43:34.410Z,87.21
2022-09-25T01:46:09.771Z,87.25
2022-09-25T01:48:40.608Z,87.22
2022-09-25T01:51:15.035Z,87.30
2022-09-25T01:53:52.186Z,87.47
2022-09-25T01:56:33.152Z,87.64
2022-09-25T01:59:07.103Z,87.57
2022-09-25T02:01:40.835Z,87.57
2022-09-25T02:04:13.647Z,87.63
2022-09-25T02:06:48.150Z,87.62
2022-09-25T02:09:20.916Z,87.57
2022-09-25T02:11:56.258Z,87.62
2022-09-25T02:14:28.956Z,87.59
2022-09-25T02:17:01.429Z,87.56
2022-09-25T02:19:47.553Z,87.61
2022-09-25T02:22:20.537Z,87.64
2022-09-25T02:24:58.700Z,87.61
2022-09-25T02:27:29.609Z,87.76
2022-09-25T02:29:58.778Z,87.64
2022-09-25T02:32:31.867Z,87.60
2022-09-25T02:35:00.932Z,87.57
2022-09-25T02:37:29.909Z,87.57
2022-09-25T02:40:02.463Z,87.70
2022-09-25T02:42:42.148Z,87.70
2022-09-25T02:45:35.362Z,87.57
2022-09-25T02:48:12.710Z,87.57
2022-09-25T02:50:53.944Z,87.76
2022-09-25T02:53:31.174Z,87.76
2022-09-25T02:56:04.486Z,87.80
2022-09-25T02:58:37.370Z,88.04
2022-09-25T03:01:08.474Z,88.15
2022-09-25T03:03:39.467Z,88.28
2022-09-25T03:06:09.520Z,88.08
2022-09-25T03:08:41.771Z,87.96
2022-09-25T03:11:13.216Z,87.83
2022-09-25T03:13:42.768Z,87.75
2022-09-25T03:16:16.556Z,87.93
2022-09-25T03:18:46.511Z,87.96
2022-09-25T03:21:15.261Z,88.02
2022-09-25T03:23:43.442Z,88.09
2022-09-25T03:26:11.687Z,88.20
2022-09-25T03:28:40.198Z,88.27
2022-09-25T03:31:11.464Z,88.31
2022-09-25T03:33:41.596Z,88.43
2022-09-25T03:36:13.053Z,88.48
2022-09-25T03:38:42.548Z,88.49
2022-09-25T03:41:12.195Z,88.75
2022-09-25T03:43:41.864Z,88.80
2022-09-25T03:46:11.681Z,88.85
2022-09-25T03:48:41.337Z,88.80
2022-09-25T03:51:11.445Z,88.70
2022-09-25T03:53:40.159Z,88.87
2022-09-25T03:56:10.310Z,88.71
2022-09-25T03:58:38.567Z,88.64
2022-09-25T04:01:07.808Z,88.38
2022-09-25T04:03:36.189Z,88.25
2022-09-25T04:06:06.357Z,88.12
2022-09-25T04:08:37.425Z,88.07
2022-09-25T04:11:06.388Z,88.06
2022-09-25T04:13:37.325Z,88.12
2022-09-25T04:16:08.306Z,88.15
2022-09-25T04:18:37.350Z,88.08
2022-09-25T04:21:08.352Z,88.35
2022-09-25T04:23:39.008Z,88.47
2022-09-25T04:26:07.957Z,88.36
2022-09-25T04:28:36.523Z,88.44
2022-09-25T04:31:05.572Z,88.68
2022-09-25T04:33:48.177Z,88.64
2022-09-25T04:36:17.223Z,88.57
2022-09-25T04:38:48.140Z,88.56
2022-09-25T04:41:20.028Z,88.57
2022-09-25T04:43:48.461Z,88.59
2022-09-25T04:46:21.819Z,88.61
2022-09-25T04:48:51.372Z,88.55
2022-09-25T04:51:22.427Z,88.62
2022-09-25T04:53:52.022Z,88.63
2022-09-25T04:56:20.298Z,88.59
2022-09-25T04:58:50.579Z,88.60
2022-09-25T05:01:21.043Z,88.52
2022-09-25T05:03:50.446Z,88.42
2022-09-25T05:06:19.102Z,88.33
2022-09-25T05:08:49.538Z,88.24
2022-09-25T05:11:19.220Z,88.21
2022-09-25T05:13:51.578Z,88.25
2022-09-25T05:16:20.580Z,88.16
2022-09-25T05:18:48.967Z,88.18
2022-09-25T05:21:17.255Z,88.33
2022-09-25T05:23:45.593Z,88.25
2022-09-25T05:26:13.866Z,88.51
2022-09-25T05:28:43.620Z,88.43
2022-09-25T05:31:12.041Z,88.35
2022-09-25T05:33:41.141Z,88.25
2022-09-25T05:36:10.134Z,88.22
2022-09-25T05:38:40.479Z,88.45
2022-09-25T05:41:10.873Z,88.65
2022-09-25T05:43:41.318Z,88.58
2022-09-25T05:46:11.964Z,88.44
2022-09-25T05:48:40.923Z,88.47
2022-09-25T05:51:09.773Z,88.51
2022-09-25T05:53:38.558Z,88.46
2022-09-25T05:56:07.277Z,88.47
2022-09-25T05:58:36.228Z,88.49
2022-09-25T06:01:06.077Z,88.47
2022-09-25T06:03:36.159Z,88.41
2022-09-25T06:06:04.832Z,88.62
2022-09-25T06:08:35.665Z,88.48
2022-09-25T06:11:05.075Z,88.44
2022-09-25T06:13:34.852Z,88.55
2022-09-25T06:16:04.086Z,88.58
2022-09-25T06:18:33.886Z,88.59
2022-09-25T06:21:06.376Z,88.59
2022-09-25T06:23:34.909Z,88.67
2022-09-25T06:26:03.898Z,88.53
2022-09-25T06:28:32.276Z,88.54
2022-09-25T06:31:02.161Z,88.54
2022-09-25T06:33:33.439Z,88.54
2022-09-25T06:36:03.383Z,88.54
2022-09-25T06:38:33.328Z,88.42
2022-09-25T06:41:01.843Z,88.36
2022-09-25T06:43:31.219Z,88.37
2022-09-25T06:46:03.780Z,88.43
2022-09-25T06:48:32.944Z,88.26
2022-09-25T06:51:03.647Z,88.04
2022-09-25T06:53:31.889Z,87.92
2022-09-25T06:56:00.928Z,87.70
2022-09-25T06:58:30.712Z,87.46
2022-09-25T07:00:59.174Z,87.41
2022-09-25T07:03:44.804Z,87.20
2022-09-25T07:06:17.151Z,86.92
2022-09-25T07:08:46.339Z,86.61
2022-09-25T07:11:16.609Z,86.46
2022-09-25T07:13:45.472Z,86.45
2022-09-25T07:16:15.684Z,86.14
2022-09-25T07:18:44.899Z,85.83
2022-09-25T07:21:15.998Z,85.72
2022-09-25T07:23:44.637Z,85.65
2022-09-25T07:26:14.943Z,85.64
2022-09-25T07:28:44.998Z,85.43
2022-09-25T07:31:15.729Z,85.04
2022-09-25T07:33:44.710Z,84.61
2022-09-25T07:36:15.253Z,84.29
2022-09-25T07:38:43.931Z,84.06
2022-09-25T07:41:13.039Z,84.18
2022-09-25T07:43:43.501Z,84.45
2022-09-25T07:46:12.513Z,84.79
2022-09-25T07:48:41.035Z,84.59
2022-09-25T07:51:12.217Z,83.75
2022-09-25T07:53:42.767Z,83.33
2022-09-25T07:56:12.835Z,82.46
2022-09-25T07:58:41.656Z,82.13
2022-09-25T08:01:13.530Z,81.81
2022-09-25T08:03:41.974Z,81.94
2022-09-25T08:06:13.265Z,81.17
2022-09-25T08:08:44.225Z,81.23
2022-09-25T08:11:15.245Z,81.51
2022-09-25T08:13:44.055Z,81.32
2022-09-25T08:16:14.421Z,80.89
2022-09-25T08:18:44.031Z,81.02
2022-09-25T08:21:14.396Z,80.94
2022-09-25T08:23:48.142Z,80.10
2022-09-25T08:26:16.764Z,80.28
2022-09-25T08:28:45.229Z,79.12
2022-09-25T08:31:14.567Z,79.40
2022-09-25T08:33:46.984Z,78.17
2022-09-25T08:36:15.897Z,77.69
2022-09-25T08:38:46.815Z,78.14
2022-09-25T08:41:19.695Z,78.76
2022-09-25T08:43:57.267Z,79.51
2022-09-25T08:46:51.405Z,79.23
2022-09-25T08:49:25.104Z,78.28
2022-09-25T08:51:57.948Z,78.30
2022-09-25T08:54:30.467Z,77.31
2022-09-25T08:57:02.765Z,76.37
2022-09-25T08:59:35.816Z,75.33
2022-09-25T09:02:13.662Z,75.81
2022-09-25T09:04:45.976Z,76.50
2022-09-25T09:07:26.903Z,77.60
2022-09-25T09:10:07.632Z,77.29
2022-09-25T09:12:38.849Z,76.27
2022-09-25T09:15:19.176Z,75.79
2022-09-25T09:17:47.421Z,75.92
2022-09-25T09:20:19.331Z,75.29
2022-09-25T09:22:50.975Z,75.67
2022-09-25T09:25:29.987Z,75.52
2022-09-25T09:28:11.225Z,77.36
2022-09-25T09:30:50.785Z,75.47
2022-09-25T09:33:35.433Z,73.63
2022-09-25T09:36:12.246Z,74.31
2022-09-25T09:38:48.851Z,71.22
2022-09-25T09:41:34.722Z,72.92
2022-09-25T09:44:18.763Z,72.22
2022-09-25T09:46:56.518Z,71.16
2022-09-25T09:49:33.283Z,72.71
2022-09-25T09:52:06.142Z,71.46
2022-09-25T09:54:39.788Z,72.56
2022-09-25T09:57:17.703Z,73.51
2022-09-25T09:59:50.839Z,74.36
2022-09-25T10:02:33.388Z,75.14
2022-09-25T10:05:05.810Z,75.22
2022-09-25T10:07:39.230Z,73.36
2022-09-25T10:10:14.360Z,74.25
2022-09-25T10:12:47.910Z,72.43
2022-09-25T10:15:25.488Z,71.18
2022-09-25T10:17:55.311Z,70.20
2022-09-25T10:20:25.883Z,72.31
2022-09-25T10:22:56.671Z,72.11
2022-09-25T10:25:38.130Z,71.16
2022-09-25T10:28:30.714Z,72.70
2022-09-25T10:31:00.167Z,71.64
2022-09-25T10:33:30.751Z,73.27
2022-09-25T10:35:59.167Z,73.47
2022-09-25T10:38:37.717Z,74.50
2022-09-25T10:41:09.337Z,74.46
2022-09-25T10:43:52.159Z,74.09
2022-09-25T10:46:43.329Z,73.60
2022-09-25T10:49:33.786Z,74.03
2022-09-25T10:52:07.625Z,73.59
2022-09-25T10:54:43.707Z,73.25
2022-09-25T10:57:18.749Z,73.88
2022-09-25T10:59:52.649Z,74.02
2022-09-25T11:02:32.663Z,73.56
2022-09-25T11:05:02.042Z,74.14
2022-09-25T11:07:33.290Z,74.48
2022-09-25T11:10:01.643Z,72.30
2022-09-25T11:12:30.568Z,72.21
2022-09-25T11:15:03.204Z,71.06
2022-09-25T11:17:34.512Z,71.52
2022-09-25T11:20:30.895Z,70.86
2022-09-25T11:23:32.382Z,70.52
2022-09-25T11:26:07.370Z,70.39
2022-09-25T11:28:44.573Z,70.68
2022-09-25T11:31:23.889Z,70.04
2022-09-25T11:33:57.893Z,70.23
2022-09-25T11:36:30.505Z,68.20
2022-09-25T11:39:36.150Z,72.04
2022-09-25T11:42:09.355Z,69.78
2022-09-25T11:44:44.714Z,70.55
2022-09-25T11:47:20.137Z,69.23
2022-09-25T11:49:51.480Z,72.33
2022-09-25T11:52:40.254Z,70.64
2022-09-25T11:55:24.422Z,73.09
2022-09-25T11:58:02.107Z,71.42
2022-09-25T12:00:41.011Z,69.31
2022-09-25T12:03:30.382Z,68.87
2022-09-25T12:06:13.897Z,70.19
2022-09-25T12:08:55.699Z,70.12
2022-09-25T12:11:38.034Z,69.90
2022-09-25T12:14:14.440Z,69.16
2022-09-25T12:16:51.994Z,71.48
2022-09-25T12:19:35.718Z,72.25
2022-09-25T12:22:09.804Z,70.15
2022-09-25T12:24:54.467Z,71.34
2022-09-25T12:27:31.744Z,71.96
2022-09-25T12:30:15.544Z,71.43
2022-09-25T12:33:20.858Z,72.64
2022-09-25T12:35:55.185Z,72.85
2022-09-25T12:38:41.335Z,70.61
2022-09-25T12:41:18.033Z,72.06
2022-09-25T12:43:52.081Z,68.38
2022-09-25T12:46:26.820Z,68.97
2022-09-25T12:49:01.904Z,69.13
2022-09-25T12:51:40.567Z,66.74
2022-09-25T12:54:20.768Z,67.44
2022-09-25T12:56:56.322Z,87.62
2022-09-25T12:59:29.832Z,84.88
2022-09-25T13:02:05.151Z,98.13
2022-09-25T13:04:44.647Z,102.24
2022-09-25T13:07:23.489Z,108.07
2022-09-25T13:09:52.236Z,110.36
2022-09-25T13:12:29.247Z,111.37
2022-09-25T13:15:01.126Z,111.29
2022-09-25T13:17:31.313Z,112.52
2022-09-25T13:20:37.000Z,112.29
2022-09-25T13:23:10.270Z,116.34
2022-09-25T13:25:43.342Z,115.20
2022-09-25T13:28:20.375Z,113.38
2022-09-25T13:31:03.268Z,111.46
2022-09-25T13:33:39.201Z,111.10
2022-09-25T13:36:09.596Z,111.78
2022-09-25T13:39:03.504Z,106.76
2022-09-25T13:41:33.435Z,102.88
2022-09-25T13:44:51.126Z,106.79
2022-09-25T13:47:56.108Z,111.82
2022-09-25T13:50:28.530Z,117.56
2022-09-25T13:53:24.886Z,114.12
2022-09-25T13:56:26.672Z,115.13
2022-09-25T13:59:24.651Z,114.86
2022-09-25T14:01:56.118Z,114.96
2022-09-25T14:04:37.417Z,116.13
2022-09-25T14:07:24.941Z,104.34
2022-09-25T14:09:56.254Z,113.43
2022-09-25T14:12:32.699Z,107.36
2022-09-25T14:15:07.519Z,112.42
2022-09-25T14:17:38.041Z,108.99
2022-09-25T14:20:18.827Z,106.20
2022-09-25T14:22:54.040Z,110.23
2022-09-25T14:25:28.506Z,115.28
2022-09-25T14:27:56.917Z,112.50
2022-09-25T14:30:30.245Z,112.46
2022-09-25T14:33:22.183Z,114.62
2022-09-25T14:36:01.706Z,116.63
2022-09-25T14:38:52.161Z,116.75
2022-09-25T14:41:46.629Z,114.80
2022-09-25T14:44:28.418Z,113.79
2022-09-25T14:46:58.749Z,113.67
2022-09-25T14:49:29.486Z,110.66
2022-09-25T14:52:02.696Z,115.37
2022-09-25T14:54:36.592Z,110.38
2022-09-25T14:57:06.291Z,113.95
2022-09-25T14:59:40.434Z,114.77
2022-09-25T15:02:18.535Z,114.29
2022-09-25T15:04:47.697Z,115.45
2022-09-25T15:07:17.573Z,116.07
2022-09-25T15:09:48.554Z,117.57
2022-09-25T15:12:24.559Z,116.51
2022-09-25T15:15:03.893Z,115.90
2022-09-25T15:17:37.222Z,109.75
2022-09-25T15:20:08.499Z,118.49
2022-09-25T15:22:39.614Z,115.25
2022-09-25T15:25:09.914Z,114.68
2022-09-25T15:27:43.624Z,112.57
2022-09-25T15:30:17.298Z,116.55
2022-09-25T15:32:50.568Z,113.60
2022-09-25T15:35:22.621Z,115.80
2022-09-25T15:37:51.298Z,114.25
2022-09-25T15:40:25.693Z,115.83
2022-09-25T15:42:56.764Z,115.97
2022-09-25T15:45:41.703Z,114.92
2022-09-25T15:48:16.985Z,115.11
2022-09-25T15:50:46.112Z,116.35
2022-09-25T15:53:24.901Z,115.40
2022-09-25T15:56:06.391Z,114.35
2022-09-25T15:58:51.752Z,117.35
2022-09-25T16:01:41.780Z,116.57
2022-09-25T16:04:38.600Z,115.84
2022-09-25T16:07:24.434Z,116.78
2022-09-25T16:09:54.189Z,116.07
2022-09-25T16:12:28.232Z,117.02
2022-09-25T16:14:57.973Z,113.09
2022-09-25T16:17:33.645Z,112.12
2022-09-25T16:20:07.593Z,111.52
2022-09-25T16:22:42.518Z,112.63
2022-09-25T16:25:22.181Z,106.40
2022-09-25T16:27:50.953Z,115.27
2022-09-25T16:30:22.361Z,107.96
2022-09-25T16:32:54.598Z,110.52
2022-09-25T16:35:40.672Z,111.96
2022-09-25T16:38:28.234Z,107.46
2022-09-25T16:41:04.553Z,112.78
2022-09-25T16:43:35.637Z,112.85
2022-09-25T16:46:12.788Z,110.07
2022-09-25T16:48:42.222Z,110.81
2022-09-25T16:51:15.110Z,110.72
2022-09-25T16:53:44.915Z,109.33
2022-09-25T16:56:21.782Z,109.72
2022-09-25T16:58:50.727Z,105.32
2022-09-25T17:01:19.711Z,97.52
2022-09-25T17:03:52.802Z,104.59
2022-09-25T17:06:24.188Z,96.04
2022-09-25T17:08:52.516Z,95.74
2022-09-25T17:11:22.421Z,102.86
2022-09-25T17:13:52.582Z,103.86
2022-09-25T17:16:20.953Z,102.52
2022-09-25T17:18:49.432Z,102.77
2022-09-25T17:21:19.446Z,101.03
2022-09-25T17:23:49.148Z,97.58
2022-09-25T17:26:20.933Z,95.99
2022-09-25T17:28:49.598Z,95.81
2022-09-25T17:31:20.391Z,93.98
2022-09-25T17:33:49.929Z,96.67
2022-09-25T17:36:18.626Z,97.11
2022-09-25T17:38:48.191Z,93.75
2022-09-25T17:41:20.715Z,94.81
2022-09-25T17:43:49.603Z,93.27
2022-09-25T17:46:19.243Z,91.85
2022-09-25T17:48:53.958Z,86.03
2022-09-25T17:51:24.865Z,82.93
2022-09-25T17:53:56.200Z,83.27
2022-09-25T17:56:25.740Z,82.21
2022-09-25T17:58:57.362Z,81.77
2022-09-25T18:01:27.776Z,80.72
2022-09-25T18:03:57.788Z,81.30
2022-09-25T18:06:28.012Z,80.83
2022-09-25T18:08:57.846Z,80.97
2022-09-25T18:11:26.881Z,80.68
2022-09-25T18:13:57.975Z,80.25
2022-09-25T18:16:29.715Z,80.88
2022-09-25T18:19:21.138Z,80.81
2022-09-25T18:22:06.947Z,81.02
2022-09-25T18:24:36.867Z,80.69
2022-09-25T18:27:05.288Z,80.82
2022-09-25T18:29:36.297Z,80.38
2022-09-25T18:32:05.057Z,80.41
2022-09-25T18:34:33.275Z,80.43
2022-09-25T18:37:01.619Z,80.84
2022-09-25T18:39:30.514Z,80.98
2022-09-25T18:42:00.243Z,81.10
2022-09-25T18:44:29.087Z,81.29
2022-09-25T18:46:57.474Z,81.62
2022-09-25T18:49:26.500Z,81.52
2022-09-25T18:51:55.654Z,81.36
2022-09-25T18:54:23.992Z,81.38
2022-09-25T18:56:52.585Z,80.97
2022-09-25T18:59:36.442Z,80.93
2022-09-25T19:02:05.005Z,80.97
2022-09-25T19:04:34.435Z,81.14
2022-09-25T19:07:02.807Z,81.39
2022-09-25T19:09:31.964Z,81.67
2022-09-25T19:12:00.261Z,81.77
2022-09-25T19:14:30.233Z,81.76
2022-09-25T19:16:58.580Z,81.59
2022-09-25T19:19:27.831Z,81.68
2022-09-25T19:21:56.348Z,81.69
2022-09-25T19:24:24.664Z,82.05
2022-09-25T19:26:52.947Z,81.94
2022-09-25T19:29:21.477Z,81.94
2022-09-25T19:31:51.139Z,81.99
2022-09-25T19:34:19.451Z,82.20
2022-09-25T19:36:47.776Z,82.23
2022-09-25T19:39:16.107Z,82.36
2022-09-25T19:41:44.799Z,82.38
2022-09-25T19:44:15.019Z,82.25
2022-09-25T19:46:44.298Z,82.04
2022-09-25T19:49:15.709Z,82.49
2022-09-25T19:51:45.073Z,82.45
2022-09-25T19:54:15.529Z,82.04
2022-09-25T19:56:46.254Z,82.01
2022-09-25T19:59:15.956Z,81.68
2022-09-25T20:01:44.944Z,81.70
2022-09-25T20:04:18.639Z,81.76
2022-09-25T20:06:48.697Z,82.07
2022-09-25T20:09:17.201Z,82.25
2022-09-25T20:11:45.834Z,82.01
2022-09-25T20:14:14.252Z,82.01
2022-09-25T20:16:42.574Z,82.13
2022-09-25T20:19:11.730Z,82.26
2022-09-25T20:21:41.800Z,82.38
2022-09-25T20:24:10.646Z,82.29
2022-09-25T20:26:39.424Z,82.21
2022-09-25T20:29:09.866Z,82.20
2022-09-25T20:31:42.308Z,82.24
2022-09-25T20:34:13.850Z,82.05
2022-09-25T20:36:43.996Z,82.29
2022-09-25T20:39:20.620Z,81.98
2022-09-25T20:41:50.089Z,82.17
2022-09-25T20:44:18.386Z,82.49
2022-09-25T20:46:46.718Z,82.38
2022-09-25T20:49:17.283Z,82.67
2022-09-25T20:51:47.478Z,81.96
2022-09-25T20:54:16.246Z,81.91
2022-09-25T20:56:45.469Z,81.81
2022-09-25T20:59:16.177Z,81.98
2022-09-25T21:01:44.776Z,82.03
2022-09-25T21:04:13.477Z,81.98
2022-09-25T21:06:42.768Z,81.78
2022-09-25T21:09:19.190Z,81.94
2022-09-25T21:11:48.277Z,81.98
2022-09-25T21:14:19.635Z,82.20
2022-09-25T21:16:48.863Z,81.94
2022-09-25T21:19:18.734Z,82.42
2022-09-25T21:21:47.163Z,82.33
2022-09-25T21:24:19.124Z,82.47
2022-09-25T21:26:48.017Z,82.20
2022-09-25T21:29:17.248Z,81.97
2022-09-25T21:31:49.884Z,82.08
2022-09-25T21:34:19.537Z,81.99
2022-09-25T21:36:48.319Z,82.54
2022-09-25T21:39:20.805Z,82.36
2022-09-25T21:41:49.985Z,82.69
2022-09-25T21:44:20.376Z,82.52
2022-09-25T21:46:48.680Z,82.65
2022-09-25T21:49:18.779Z,82.74
2022-09-25T21:51:48.158Z,82.81
2022-09-25T21:54:18.596Z,82.55
2022-09-25T21:56:49.123Z,82.34
2022-09-25T21:59:17.699Z,82.38
2022-09-25T22:01:46.353Z,82.29
2022-09-25T22:04:15.468Z,82.32
2022-09-25T22:06:45.615Z,82.46
2022-09-25T22:09:16.887Z,82.38
2022-09-25T22:11:48.054Z,82.70
2022-09-25T22:14:16.894Z,82.36
2022-09-25T22:16:46.903Z,82.57
2022-09-25T22:19:17.452Z,82.51
2022-09-25T22:21:47.609Z,82.35
2022-09-25T22:24:16.445Z,82.23
2022-09-25T22:26:48.368Z,82.51
2022-09-25T22:29:17.671Z,82.42
2022-09-25T22:31:46.126Z,82.26
2022-09-25T22:34:18.402Z,82.25
2022-09-25T22:36:47.469Z,82.15
2022-09-25T22:39:17.572Z,82.10
2022-09-25T22:41:50.876Z,81.81
2022-09-25T22:44:19.784Z,81.59
2022-09-25T22:46:48.460Z,81.52
2022-09-25T22:49:16.751Z,81.54
2022-09-25T22:51:45.099Z,81.20
2022-09-25T22:54:14.710Z,81.10
2022-09-25T22:56:43.993Z,81.11
2022-09-25T22:59:16.224Z,81.33
2022-09-25T23:01:47.723Z,81.37
2022-09-25T23:04:17.957Z,81.23
2022-09-25T23:06:46.251Z,81.61
2022-09-25T23:09:16.711Z,81.27
2022-09-25T23:11:46.113Z,81.40
2022-09-25T23:14:19.448Z,81.18
2022-09-25T23:16:49.388Z,81.17
2022-09-25T23:19:18.377Z,81.04
2022-09-25T23:21:48.819Z,81.14
2022-09-25T23:24:19.299Z,81.44
2022-09-25T23:26:47.742Z,81.19
2022-09-25T23:29:20.828Z,81.49
2022-09-25T23:31:50.435Z,81.72
2022-09-25T23:34:18.942Z,81.04
2022-09-25T23:36:47.453Z,81.07
2022-09-25T23:39:18.203Z,81.43
2022-09-25T23:41:46.657Z,81.52
2022-09-25T23:44:15.313Z,81.75
2022-09-25T23:46:45.261Z,81.33
2022-09-25T23:49:13.940Z,81.21
2022-09-25T23:51:43.852Z,81.62
2022-09-25T23:54:17.440Z,81.91
2022-09-25T23:56:45.892Z,82.10
2022-09-25T23:59:14.730Z,82.05
